Terminal Aerodrome Forecast
Issued by NWS Wilmington, NC

Home | Current Version | Previous Version | Text Only | Print | Product List | Glossary On
Versions: 1 2 3 4 5 6 7 8 9 10 11 12 13 14 15 16
081
FTUS42 KILM 291750 CCA
TAFMYR
TAF COR
KMYR 291750Z 2918/3018 13011G20KT 6SM -SHRA SCT020
      TEMPO 2921/3001 3SM SHRA BKN020
     FM300100 12004KT 6SM -SHRA BKN014
     FM300700 13004KT P6SM VCSH BKN008
     FM301100 14006KT 5SM -SHRA BKN016=

USA.gov is the U.S. government's official web portal to all federal, state and local government web resources and services.